Terminal Aerodrome Forecast
Issued by NWS

Home | Current Version | Previous Version | Text Only | Print | Product List | Glossary On
Versions: 1 2 3 4 5 6 7 8 9 10 11 12 13
000
FTUS46 KMTR 150524
TAFSNS
TAF
KSNS 150524Z 1506/1606 12005KT P6SM SKC
     FM150900 12008KT P6SM SKC
     FM151700 12011KT P6SM SKC
     FM152200 28008KT P6SM FEW200
     FM160100 29008KT P6SM SCT200=

USA.gov is the U.S. government's official web portal to all federal, state and local government web resources and services.